Test XHTML 1.0 Strict Page for WU-History Testing
Station Historical Data
 
Daily Summary for August 20, 2014 Units:  Both    English   Metric
« Previous Day
Next Day »
Daily Weekly Monthly Yearly Custom
  Current: High: Low: Average:
Temperature: 58.1 °F /  14.5 °C 58.3 °F /  14.6 °C 39.0 °F /  3.9 °C 45 °F /  7.2 °C
Dew Point: 50.2 °F /  10.1 °C 51.9 °F /  11.1 °C 38.8 °F /  3.8 °C 43.7 °F /  6.5 °C
Humidity: 75% 99% 75% 96%
Wind Speed: 2.4mph /  3.9km/h 5.8mph /  9.3km/h - 0.4mph /  0.6km/h
Wind Gust: 2.4mph /  3.9km/h 5.8mph /  9.3km/h - -
WindSSE - - SW
Pressure: 30.05 in /  1017.5 hPa 30.05 in /  1017.5 hPa 30.02 in /  1016.5 hPa -
Precipitation: 0.00 in /  0 mm      
Historical Graphs
 
 
Weather-Above Climate History
Untitled
Tabular Data for August 20, 2014
Time Temperature Dew Point Pressure Wind Wind Speed Wind Gust Humidity Rainfall Rate (Hourly)
00:02 43.5 °F /  6.4 °C 43.0 °F /  6.1 °C 30.02in /  1016.5hPa Calm     98% 0.00in /  0cm
00:07 43.5 °F /  6.4 °C 43.0 °F /  6.1 °C 30.02in /  1016.5hPa Calm     98% 0.00in /  0cm
00:12 43.5 °F /  6.4 °C 43.0 °F /  6.1 °C 30.02in /  1016.5hPa Calm     98% 0.00in /  0cm
00:17 43.5 °F /  6.4 °C 43.0 °F /  6.1 °C 30.02in /  1016.5hPa Calm     98% 0.00in /  0cm
00:22 43.5 °F /  6.4 °C 43.0 °F /  6.1 °C 30.03in /  1016.8hPa Calm     98% 0.00in /  0cm
00:27 43.5 °F /  6.4 °C 43.0 °F /  6.1 °C 30.03in /  1016.8hPa Calm     98% 0.00in /  0cm
00:32 43.5 °F /  6.4 °C 43.0 °F /  6.1 °C 30.03in /  1016.8hPa Calm     98% 0.00in /  0cm
00:37 43.5 °F /  6.4 °C 42.7 °F /  5.9 °C 30.03in /  1016.8hPa Calm     97% 0.00in /  0cm
00:42 43.3 °F /  6.3 °C 42.8 °F /  6 °C 30.03in /  1016.8hPa Calm     98% 0.00in /  0cm
00:47 43.2 °F /  6.2 °C 42.6 °F /  5.9 °C 30.03in /  1016.8hPa Calm     98% 0.00in /  0cm
00:52 43.2 °F /  6.2 °C 42.6 °F /  5.9 °C 30.03in /  1016.8hPa Calm     98% 0.00in /  0cm
00:57 43.2 °F /  6.2 °C 42.6 °F /  5.9 °C 30.03in /  1016.8hPa Calm     98% 0.00in /  0cm
01:02 43.0 °F /  6.1 °C 42.5 °F /  5.8 °C 30.02in /  1016.5hPa Calm     98% 0.00in /  0cm
01:07 42.6 °F /  5.9 °C 42.1 °F /  5.6 °C 30.03in /  1016.8hPa Calm     98% 0.00in /  0cm
01:12 42.8 °F /  6 °C 42.3 °F /  5.7 °C 30.03in /  1016.8hPa Calm     98% 0.00in /  0cm
01:17 42.8 °F /  6 °C 42.3 °F /  5.7 °C 30.03in /  1016.8hPa Calm     98% 0.00in /  0cm
01:22 42.8 °F /  6 °C 42.3 °F /  5.7 °C 30.03in /  1016.8hPa Calm     98% 0.00in /  0cm
01:27 42.8 °F /  6 °C 42.3 °F /  5.7 °C 30.03in /  1016.8hPa Calm     98% 0.00in /  0cm
01:32 42.6 °F /  5.9 °C 42.1 °F /  5.6 °C 30.02in /  1016.5hPa Calm     98% 0.00in /  0cm
01:37 42.6 °F /  5.9 °C 42.1 °F /  5.6 °C 30.03in /  1016.8hPa Calm     98% 0.00in /  0cm
01:42 42.6 °F /  5.9 °C 42.1 °F /  5.6 °C 30.03in /  1016.8hPa Calm     98% 0.00in /  0cm
01:47 42.6 °F /  5.9 °C 42.1 °F /  5.6 °C 30.03in /  1016.8hPa Calm     98% 0.00in /  0cm
01:52 42.4 °F /  5.8 °C 41.9 °F /  5.5 °C 30.03in /  1016.8hPa Calm     98% 0.00in /  0cm
01:57 42.4 °F /  5.8 °C 41.9 °F /  5.5 °C 30.03in /  1016.8hPa Calm     98% 0.00in /  0cm
02:02 41.7 °F /  5.4 °C 41.2 °F /  5.1 °C 30.03in /  1016.8hPa Calm     98% 0.00in /  0cm
02:07 41.7 °F /  5.4 °C 40.9 °F /  4.9 °C 30.03in /  1016.8hPa Calm     97% 0.00in /  0cm
02:12 41.7 °F /  5.4 °C 41.5 °F /  5.3 °C 30.03in /  1016.8hPa Calm     99% 0.00in /  0cm
02:17 41.4 °F /  5.2 °C 41.1 °F /  5.1 °C 30.03in /  1016.8hPa Calm     99% 0.00in /  0cm
02:22 41.4 °F /  5.2 °C 40.8 °F /  4.9 °C 30.02in /  1016.5hPa Calm     98% 0.00in /  0cm
02:27 41.4 °F /  5.2 °C 40.8 °F /  4.9 °C 30.02in /  1016.5hPa Calm     98% 0.00in /  0cm
02:32 41.4 °F /  5.2 °C 41.1 °F /  5.1 °C 30.02in /  1016.5hPa Calm     99% 0.00in /  0cm
02:37 41.0 °F /  5 °C 40.7 °F /  4.8 °C 30.03in /  1016.8hPa Calm     99% 0.00in /  0cm
02:42 40.8 °F /  4.9 °C 40.6 °F /  4.8 °C 30.03in /  1016.8hPa Calm     99% 0.00in /  0cm
02:47 41.0 °F /  5 °C 40.7 °F /  4.8 °C 30.03in /  1016.8hPa Calm     99% 0.00in /  0cm
02:52 40.6 °F /  4.8 °C 40.4 °F /  4.7 °C 30.03in /  1016.8hPa Calm     99% 0.00in /  0cm
02:57 40.6 °F /  4.8 °C 40.4 °F /  4.7 °C 30.03in /  1016.8hPa Calm     99% 0.00in /  0cm
03:02 40.5 °F /  4.7 °C 40.2 °F /  4.6 °C 30.03in /  1016.8hPa Calm     99% 0.00in /  0cm
03:07 40.1 °F /  4.5 °C 39.8 °F /  4.3 °C 30.03in /  1016.8hPa Calm     99% 0.00in /  0cm
03:12 40.1 °F /  4.5 °C 39.8 °F /  4.3 °C 30.03in /  1016.8hPa Calm     99% 0.00in /  0cm
03:17 40.5 °F /  4.7 °C 40.2 °F /  4.6 °C 30.03in /  1016.8hPa Calm     99% 0.00in /  0cm
03:22 40.1 °F /  4.5 °C 39.8 °F /  4.3 °C 30.03in /  1016.8hPa Calm     99% 0.00in /  0cm
03:27 39.9 °F /  4.4 °C 39.7 °F /  4.3 °C 30.03in /  1016.8hPa Calm     99% 0.00in /  0cm
03:32 39.9 °F /  4.4 °C 39.4 °F /  4.1 °C 30.03in /  1016.8hPa Calm     98% 0.00in /  0cm
03:37 39.9 °F /  4.4 °C 39.7 °F /  4.3 °C 30.03in /  1016.8hPa Calm     99% 0.00in /  0cm
03:42 39.7 °F /  4.3 °C 39.5 °F /  4.2 °C 30.03in /  1016.8hPa Calm     99% 0.00in /  0cm
03:47 39.7 °F /  4.3 °C 39.5 °F /  4.2 °C 30.03in /  1016.8hPa Calm     99% 0.00in /  0cm
03:52 39.9 °F /  4.4 °C 39.7 °F /  4.3 °C 30.03in /  1016.8hPa Calm     99% 0.00in /  0cm
03:57 39.9 °F /  4.4 °C 39.7 °F /  4.3 °C 30.03in /  1016.8hPa Calm     99% 0.00in /  0cm
04:02 39.9 °F /  4.4 °C 39.7 °F /  4.3 °C 30.03in /  1016.8hPa Calm     99% 0.00in /  0cm
04:07 39.7 °F /  4.3 °C 39.5 °F /  4.2 °C 30.03in /  1016.8hPa Calm     99% 0.00in /  0cm
04:12 39.6 °F /  4.2 °C 39.3 °F /  4.1 °C 30.03in /  1016.8hPa Calm     99% 0.00in /  0cm
04:17 39.7 °F /  4.3 °C 39.5 °F /  4.2 °C 30.02in /  1016.5hPa Calm     99% 0.00in /  0cm
04:22 39.9 °F /  4.4 °C 39.7 °F /  4.3 °C 30.03in /  1016.8hPa Calm     99% 0.00in /  0cm
04:27 39.2 °F /  4 °C 38.9 °F /  3.8 °C 30.03in /  1016.8hPa Calm     99% 0.00in /  0cm
04:32 39.0 °F /  3.9 °C 38.8 °F /  3.8 °C 30.03in /  1016.8hPa Calm     99% 0.00in /  0cm
04:37 39.2 °F /  4 °C 38.9 °F /  3.8 °C 30.03in /  1016.8hPa Calm     99% 0.00in /  0cm
04:42 39.2 °F /  4 °C 38.9 °F /  3.8 °C 30.03in /  1016.8hPa Calm     99% 0.00in /  0cm
04:47 39.6 °F /  4.2 °C 39.3 °F /  4.1 °C 30.03in /  1016.8hPa Calm     99% 0.00in /  0cm
04:52 39.6 °F /  4.2 °C 39.3 °F /  4.1 °C 30.02in /  1016.5hPa Calm     99% 0.00in /  0cm
04:57 39.4 °F /  4.1 °C 39.1 °F /  3.9 °C 30.02in /  1016.5hPa Calm     99% 0.00in /  0cm
05:01 39.6 °F /  4.2 °C 39.3 °F /  4.1 °C 30.02in /  1016.5hPa Calm     99% 0.00in /  0cm
05:03 39.6 °F /  4.2 °C 39.3 °F /  4.1 °C 30.02in /  1016.5hPa Calm     99% 0.00in /  0cm
05:04 39.6 °F /  4.2 °C 39.3 °F /  4.1 °C 30.02in /  1016.5hPa Calm     99% 0.00in /  0cm
05:09 39.9 °F /  4.4 °C 39.7 °F /  4.3 °C 30.02in /  1016.5hPa Calm     99% 0.00in /  0cm
05:10 39.9 °F /  4.4 °C 39.7 °F /  4.3 °C 30.02in /  1016.5hPa Calm     99% 0.00in /  0cm
05:15 39.9 °F /  4.4 °C 39.7 °F /  4.3 °C 30.02in /  1016.5hPa Calm     99% 0.00in /  0cm
05:20 40.1 °F /  4.5 °C 39.8 °F /  4.3 °C 30.03in /  1016.8hPa Calm     99% 0.00in /  0cm
05:25 40.1 °F /  4.5 °C 39.8 °F /  4.3 °C 30.03in /  1016.8hPa Calm     99% 0.00in /  0cm
05:30 40.5 °F /  4.7 °C 40.2 °F /  4.6 °C 30.03in /  1016.8hPa Calm     99% 0.00in /  0cm
05:35 40.6 °F /  4.8 °C 40.4 °F /  4.7 °C 30.02in /  1016.5hPa Calm     99% 0.00in /  0cm
05:40 40.5 °F /  4.7 °C 40.2 °F /  4.6 °C 30.03in /  1016.8hPa Calm     99% 0.00in /  0cm
05:45 40.1 °F /  4.5 °C 39.8 °F /  4.3 °C 30.03in /  1016.8hPa Calm     99% 0.00in /  0cm
05:50 39.7 °F /  4.3 °C 39.5 °F /  4.2 °C 30.03in /  1016.8hPa Calm     99% 0.00in /  0cm
05:55 39.6 °F /  4.2 °C 39.3 °F /  4.1 °C 30.03in /  1016.8hPa Calm     99% 0.00in /  0cm
06:00 39.6 °F /  4.2 °C 39.3 °F /  4.1 °C 30.03in /  1016.8hPa Calm     99% 0.00in /  0cm
06:05 39.7 °F /  4.3 °C 39.5 °F /  4.2 °C 30.03in /  1016.8hPa Calm     99% 0.00in /  0cm
06:10 39.9 °F /  4.4 °C 39.7 °F /  4.3 °C 30.03in /  1016.8hPa Calm     99% 0.00in /  0cm
06:15 40.1 °F /  4.5 °C 39.8 °F /  4.3 °C 30.03in /  1016.8hPa Calm     99% 0.00in /  0cm
06:20 39.9 °F /  4.4 °C 39.7 °F /  4.3 °C 30.02in /  1016.5hPa Calm     99% 0.00in /  0cm
06:25 39.7 °F /  4.3 °C 39.5 °F /  4.2 °C 30.03in /  1016.8hPa Calm     99% 0.00in /  0cm
06:30 39.6 °F /  4.2 °C 39.3 °F /  4.1 °C 30.03in /  1016.8hPa Calm     99% 0.00in /  0cm
06:35 39.6 °F /  4.2 °C 39.3 °F /  4.1 °C 30.02in /  1016.5hPa Calm     99% 0.00in /  0cm
06:40 40.1 °F /  4.5 °C 39.8 °F /  4.3 °C 30.02in /  1016.5hPa Calm     99% 0.00in /  0cm
06:45 40.8 °F /  4.9 °C 40.6 °F /  4.8 °C 30.02in /  1016.5hPa Calm     99% 0.00in /  0cm
06:50 41.0 °F /  5 °C 40.5 °F /  4.7 °C 30.02in /  1016.5hPa Calm     98% 0.00in /  0cm
06:55 41.2 °F /  5.1 °C 40.9 °F /  4.9 °C 30.03in /  1016.8hPa Calm     99% 0.00in /  0cm
07:00 41.0 °F /  5 °C 40.7 °F /  4.8 °C 30.02in /  1016.5hPa Calm     99% 0.00in /  0cm
07:05 41.0 °F /  5 °C 40.5 °F /  4.7 °C 30.02in /  1016.5hPa Calm     98% 0.00in /  0cm
07:10 40.8 °F /  4.9 °C 40.6 °F /  4.8 °C 30.03in /  1016.8hPa Calm     99% 0.00in /  0cm
07:15 41.2 °F /  5.1 °C 40.7 °F /  4.8 °C 30.03in /  1016.8hPa Calm     98% 0.00in /  0cm
07:20 41.5 °F /  5.3 °C 41.3 °F /  5.2 °C 30.03in /  1016.8hPa Calm     99% 0.00in /  0cm
07:25 41.9 °F /  5.5 °C 41.6 °F /  5.3 °C 30.03in /  1016.8hPa Calm     99% 0.00in /  0cm
07:30 42.1 °F /  5.6 °C 41.8 °F /  5.4 °C 30.03in /  1016.8hPa Calm     99% 0.00in /  0cm
07:35 42.3 °F /  5.7 °C 42.0 °F /  5.6 °C 30.03in /  1016.8hPa Calm     99% 0.00in /  0cm
07:40 42.3 °F /  5.7 °C 42.0 °F /  5.6 °C 30.03in /  1016.8hPa Calm     99% 0.00in /  0cm
07:45 42.4 °F /  5.8 °C 42.2 °F /  5.7 °C 30.03in /  1016.8hPa Calm     99% 0.00in /  0cm
07:50 42.8 °F /  6 °C 42.5 °F /  5.8 °C 30.03in /  1016.8hPa Calm     99% 0.00in /  0cm
07:55 43.9 °F /  6.6 °C 43.6 °F /  6.4 °C 30.03in /  1016.8hPa Calm     99% 0.00in /  0cm
08:00 44.6 °F /  7 °C 44.3 °F /  6.8 °C 30.03in /  1016.8hPa Calm     99% 0.00in /  0cm
08:05 45.9 °F /  7.7 °C 45.6 °F /  7.6 °C 30.03in /  1016.8hPa Calm     99% 0.00in /  0cm
08:10 46.4 °F /  8 °C 46.1 °F /  7.8 °C 30.03in /  1016.8hPa Calm     99% 0.00in /  0cm
08:15 47.1 °F /  8.4 °C 46.6 °F /  8.1 °C 30.03in /  1016.8hPa Calm     98% 0.00in /  0cm
08:20 48.2 °F /  9 °C 47.7 °F /  8.7 °C 30.03in /  1016.8hPa Calm     98% 0.00in /  0cm
08:25 49.1 °F /  9.5 °C 48.6 °F /  9.2 °C 30.03in /  1016.8hPa West 2.3mph /  3.7km/h 2.3mph /  3.7km/h 98% 0.00in /  0cm
08:30 50.0 °F /  10 °C 49.5 °F /  9.7 °C 30.03in /  1016.8hPa WSW 1.2mph /  1.9km/h 1.2mph /  1.9km/h 98% 0.00in /  0cm
08:35 50.4 °F /  10.2 °C 49.5 °F /  9.7 °C 30.03in /  1016.8hPa WSW 1.9mph /  3.1km/h 1.9mph /  3.1km/h 97% 0.00in /  0cm
08:40 50.5 °F /  10.3 °C 50.0 °F /  10 °C 30.03in /  1016.8hPa WSW 2.3mph /  3.7km/h 2.3mph /  3.7km/h 98% 0.00in /  0cm
08:45 50.7 °F /  10.4 °C 50.2 °F /  10.1 °C 30.03in /  1016.8hPa West 1.2mph /  1.9km/h 1.2mph /  1.9km/h 98% 0.00in /  0cm
08:50 50.7 °F /  10.4 °C 49.9 °F /  9.9 °C 30.03in /  1016.8hPa Calm     97% 0.00in /  0cm
08:55 50.9 °F /  10.5 °C 50.4 °F /  10.2 °C 30.03in /  1016.8hPa Calm   0.1mph /  0.2km/h 98% 0.00in /  0cm
09:00 51.3 °F /  10.7 °C 50.4 °F /  10.2 °C 30.03in /  1016.8hPa Calm   0.1mph /  0.2km/h 97% 0.00in /  0cm
09:05 52.0 °F /  11.1 °C 51.2 °F /  10.7 °C 30.03in /  1016.8hPa Calm     97% 0.00in /  0cm
09:10 52.5 °F /  11.4 °C 51.7 °F /  10.9 °C 30.03in /  1016.8hPa WSW 1.2mph /  1.9km/h 1.2mph /  1.9km/h 97% 0.00in /  0cm
09:15 52.7 °F /  11.5 °C 51.9 °F /  11.1 °C 30.03in /  1016.8hPa WNW 3.5mph /  5.6km/h 3.5mph /  5.6km/h 97% 0.00in /  0cm
09:20 52.7 °F /  11.5 °C 51.0 °F /  10.6 °C 30.04in /  1017.2hPa West 2.3mph /  3.7km/h 2.6mph /  4.2km/h 94% 0.00in /  0cm
09:25 52.9 °F /  11.6 °C 51.2 °F /  10.7 °C 30.04in /  1017.2hPa NW 1.0mph /  1.6km/h 1.0mph /  1.6km/h 94% 0.00in /  0cm
09:30 53.2 °F /  11.8 °C 51.6 °F /  10.9 °C 30.04in /  1017.2hPa WSW 3.5mph /  5.6km/h 3.5mph /  5.6km/h 94% 0.00in /  0cm
09:35 53.4 °F /  11.9 °C 51.4 °F /  10.8 °C 30.03in /  1016.8hPa West 3.5mph /  5.6km/h   93% 0.00in /  0cm
09:40 53.4 °F /  11.9 °C 51.4 °F /  10.8 °C 30.04in /  1017.2hPa Calm     93% 0.00in /  0cm
09:45 53.8 °F /  12.1 °C 51.8 °F /  11 °C 30.04in /  1017.2hPa Calm   0.1mph /  0.2km/h 93% 0.00in /  0cm
09:50 54.1 °F /  12.3 °C 51.9 °F /  11.1 °C 30.04in /  1017.2hPa Calm   0.5mph /  0.8km/h 92% 0.00in /  0cm
09:55 54.7 °F /  12.6 °C 51.5 °F /  10.8 °C 30.04in /  1017.2hPa WNW 2.3mph /  3.7km/h 2.3mph /  3.7km/h 89% 0.00in /  0cm
10:00 54.7 °F /  12.6 °C 51.2 °F /  10.7 °C 30.04in /  1017.2hPa NW 2.3mph /  3.7km/h 2.3mph /  3.7km/h 88% 0.00in /  0cm
10:05 54.5 °F /  12.5 °C 50.7 °F /  10.4 °C 30.04in /  1017.2hPa SSE 5.8mph /  9.3km/h 5.8mph /  9.3km/h 87% 0.00in /  0cm
10:10 54.5 °F /  12.5 °C 50.7 °F /  10.4 °C 30.04in /  1017.2hPa SSW 1.2mph /  1.9km/h   87% 0.00in /  0cm
10:15 55.2 °F /  12.9 °C 51.1 °F /  10.6 °C 30.04in /  1017.2hPa Calm     86% 0.00in /  0cm
10:20 55.9 °F /  13.3 °C 51.5 °F /  10.8 °C 30.04in /  1017.2hPa South 3.5mph /  5.6km/h   85% 0.00in /  0cm
10:25 56.3 °F /  13.5 °C 50.5 °F /  10.3 °C 30.04in /  1017.2hPa WNW 4.6mph /  7.4km/h 4.6mph /  7.4km/h 81% 0.00in /  0cm
10:30 56.1 °F /  13.4 °C 50.4 °F /  10.2 °C 30.03in /  1016.8hPa NNE 1.2mph /  1.9km/h 1.2mph /  1.9km/h 81% 0.00in /  0cm
10:35 56.5 °F /  13.6 °C 50.7 °F /  10.4 °C 30.04in /  1017.2hPa Calm     81% 0.00in /  0cm
10:40 56.1 °F /  13.4 °C 50.0 °F /  10 °C 30.04in /  1017.2hPa Calm     80% 0.00in /  0cm
10:45 55.9 °F /  13.3 °C 50.5 °F /  10.3 °C 30.04in /  1017.2hPa WSW 1.2mph /  1.9km/h 1.2mph /  1.9km/h 82% 0.00in /  0cm
10:50 56.7 °F /  13.7 °C 50.6 °F /  10.3 °C 30.04in /  1017.2hPa Calm     80% 0.00in /  0cm
10:55 57.0 °F /  13.9 °C 50.2 °F /  10.1 °C 30.04in /  1017.2hPa SW 2.3mph /  3.7km/h 2.3mph /  3.7km/h 78% 0.00in /  0cm
11:00 57.0 °F /  13.9 °C 50.6 °F /  10.3 °C 30.04in /  1017.2hPa NE 0.6mph /  1km/h   79% 0.00in /  0cm
11:05 57.2 °F /  14 °C 50.4 °F /  10.2 °C 30.05in /  1017.5hPa SSW 1.2mph /  1.9km/h   78% 0.00in /  0cm
11:10 57.6 °F /  14.2 °C 50.8 °F /  10.4 °C 30.04in /  1017.2hPa SSE 2.3mph /  3.7km/h 2.3mph /  3.7km/h 78% 0.00in /  0cm
11:15 57.9 °F /  14.4 °C 51.1 °F /  10.6 °C 30.04in /  1017.2hPa West 2.3mph /  3.7km/h 2.3mph /  3.7km/h 78% 0.00in /  0cm
11:20 58.1 °F /  14.5 °C 50.2 °F /  10.1 °C 30.05in /  1017.5hPa Calm     75% 0.00in /  0cm
11:25 58.3 °F /  14.6 °C 51.1 °F /  10.6 °C 30.05in /  1017.5hPa South 1.2mph /  1.9km/h 1.2mph /  1.9km/h 77% 0.00in /  0cm
11:30 58.1 °F /  14.5 °C 50.6 °F /  10.3 °C 30.05in /  1017.5hPa Calm   0.8mph /  1.3km/h 76% 0.00in /  0cm
11:35 58.1 °F /  14.5 °C 50.6 °F /  10.3 °C 30.05in /  1017.5hPa SE 1.4mph /  2.3km/h 1.9mph /  3.1km/h 76% 0.00in /  0cm
11:40 58.1 °F /  14.5 °C 50.2 °F /  10.1 °C 30.05in /  1017.5hPa SSE 2.4mph /  3.9km/h 2.4mph /  3.9km/h 75% 0.00in /  0cm
Wether-Above
Compliments of Weather Underground
Welcome to Weather-Above
Cheddleton weather station supplies various organisations with data from our weather station one of them is the weather Underground this information displayed here is coming from the weather Underground server 

If any information is used please acknowledge the source to www weather-above.com or weather Underground